KWST/WST METAR and TAF weather

Enter ICAO airport designator
Station Type Date Time Source
KWST METAR 2021/05/15 23:53 UTC NOAA

KWST 152353Z AUTO 22004KT 10SM CLR 16/07 A3018 RMK AO2 SLP221 T01560067 10228 20156 53003


Station Type Date Time Source
KWST Decoded METAR 2021/05/15 23:53 UTC NOAA

WESTERLY STATE AIRPORT, RI, United States (KWST) 41-21N 071-48W 21M
May 15, 2021 - 07:53 PM EDT / 2021.05.15 2353 UTC
Wind: from the SW (220 degrees) at 5 MPH (4 KT):0
Visibility: 10 mile(s):0
Sky conditions: clear
Temperature: 60.1 F (15.6 C)
Dew Point: 44.1 F (6.7 C)
Relative Humidity: 55%
Pressure (altimeter): 30.18 in. Hg (1022 hPa)
Pressure tendency: 0.01 inches (0.3 hPa) higher than three hours ago
ob: KWST 152353Z AUTO 22004KT 10SM CLR 16/07 A3018 RMK AO2 SLP221 T01560067 10228 20156 53003
cycle: 0

Station Type Date Time Source
KWST TAF UTC NOAA

Error!

Example: see airport list